<?xml version='1.0' encoding='UTF-8'?>
<gpx xmlns="http://www.topografix.com/GPX/1/1" creator="www.balnam.be" version="1.1" xmlns:xsi="http://www.w3.org/2001/XMLSchema-instance" xsi:schemaLocation="http://www.topografix.com/GPX/1/1 http://www.topografix.com/GPX/1/1/gpx.xsd">
<trk>
<name>lstspi3</name>
<cmt>v</cmt>
<desc>Sprimont Sentier n°i3 </desc>
<link href="https://chemins.be/sprimont/sentier/i3"/><trkseg>
<trkpt lat="50.503235" lon="5.596870"><time>2026-05-02T17:34:08Z</time></trkpt>
<trkpt lat="50.503734" lon="5.596660"><time>2026-05-02T17:44:08Z</time></trkpt>
<trkpt lat="50.504070" lon="5.596603"><time>2026-05-02T17:54:08Z</time></trkpt>
<trkpt lat="50.504381" lon="5.596558"><time>2026-05-02T18:04:08Z</time></trkpt>
<trkpt lat="50.504780" lon="5.596455"><time>2026-05-02T18:14:08Z</time></trkpt>
<trkpt lat="50.505097" lon="5.596305"><time>2026-05-02T18:24:08Z</time></trkpt>
<trkpt lat="50.505385" lon="5.596107"><time>2026-05-02T18:34:08Z</time></trkpt>
<trkpt lat="50.505860" lon="5.595683"><time>2026-05-02T18:44:08Z</time></trkpt>
<trkpt lat="50.506303" lon="5.595366"><time>2026-05-02T18:54:08Z</time></trkpt>
<trkpt lat="50.506740" lon="5.595087"><time>2026-05-02T19:04:08Z</time></trkpt>
<trkpt lat="50.507122" lon="5.594959"><time>2026-05-02T19:14:08Z</time></trkpt>
<trkpt lat="50.507284" lon="5.594939"><time>2026-05-02T19:24:08Z</time></trkpt>
<trkpt lat="50.507410" lon="5.594934"><time>2026-05-02T19:34:08Z</time></trkpt>
<trkpt lat="50.507594" lon="5.594929"><time>2026-05-02T19:44:08Z</time></trkpt>
<trkpt lat="50.507669" lon="5.594870"><time>2026-05-02T19:54:08Z</time></trkpt>
<trkpt lat="50.507735" lon="5.594789"><time>2026-05-02T20:04:08Z</time></trkpt>
<trkpt lat="50.507891" lon="5.594580"><time>2026-05-02T20:14:08Z</time></trkpt>
<trkpt lat="50.507967" lon="5.594473"><time>2026-05-02T20:24:08Z</time></trkpt>
<trkpt lat="50.508020" lon="5.594440"><time>2026-05-02T20:34:08Z</time></trkpt>
<trkpt lat="50.508208" lon="5.594387"><time>2026-05-02T20:44:08Z</time></trkpt>
<trkpt lat="50.508578" lon="5.594239"><time>2026-05-02T20:54:08Z</time></trkpt>
<trkpt lat="50.508682" lon="5.594194"><time>2026-05-02T21:04:08Z</time></trkpt>
<trkpt lat="50.508798" lon="5.594103"><time>2026-05-02T21:14:08Z</time></trkpt>
<trkpt lat="50.509098" lon="5.593837"><time>2026-05-02T21:24:08Z</time></trkpt>
<trkpt lat="50.509259" lon="5.593703"><time>2026-05-02T21:34:08Z</time></trkpt>
<trkpt lat="50.509330" lon="5.593719"><time>2026-05-02T21:44:08Z</time></trkpt>
<trkpt lat="50.509419" lon="5.593837"><time>2026-05-02T21:54:08Z</time></trkpt>
</trkseg>
</trk>
</gpx>